Time;durP1;ratioP1;P1;durP2;ratioP2;P2;SDS_P1;SDS_P2;PMS_P1;PMS_P2;Temp;Humidity;BMP_temperature;BMP_pressure;BME280_temperature;BME280_humidity;BME280_pressure;Samples;Min_cycle;Max_cycle;Signal;HPM_P1;HPM_P2
2021/07/28 00:00:29;;;;;;;6.20;4.53;;;26.90;52.00;;;;;;5029277;28;20378;-60
2021/07/28 00:02:55;;;;;;;10.13;5.35;;;26.90;51.50;;;;;;5014185;28;20411;-60
2021/07/28 00:05:20;;;;;;;9.30;5.18;;;26.90;51.50;;;;;;5013902;28;20536;-60
2021/07/28 00:07:46;;;;;;;11.43;5.40;;;26.90;51.60;;;;;;5013869;28;20027;-60
2021/07/28 00:10:12;;;;;;;9.05;5.30;;;26.90;51.60;;;;;;5027685;28;20404;-60
2021/07/28 00:12:38;;;;;;;9.50;5.70;;;26.80;51.70;;;;;;5037750;28;20021;-60
2021/07/28 00:15:04;;;;;;;13.63;7.25;;;26.80;51.90;;;;;;5053547;28;20196;-60
2021/07/28 00:17:31;;;;;;;25.70;13.57;;;26.80;52.00;;;;;;5019649;28;20557;-60
2021/07/28 00:25:07;;;;;;;91.18;42.13;;;26.80;52.00;;;;;;5032963;28;20039;-60
2021/07/28 00:27:36;;;;;;;88.82;43.17;;;26.80;51.90;;;;;;5032234;28;20080;-60
2021/07/28 00:30:07;;;;;;;86.72;39.42;;;26.70;51.80;;;;;;5033491;28;20461;-60
2021/07/28 00:32:32;;;;;;;69.85;33.90;;;26.70;51.60;;;;;;5033485;28;20030;-60
2021/07/28 00:34:58;;;;;;;57.78;28.02;;;26.70;51.90;;;;;;5020590;28;20112;-60
2021/07/28 00:37:24;;;;;;;36.00;19.85;;;26.70;51.90;;;;;;5013934;28;20073;-60
2021/07/28 00:39:49;;;;;;;47.60;24.38;;;26.70;51.90;;;;;;5026464;28;20026;-60
2021/07/28 00:42:15;;;;;;;41.67;21.17;;;26.70;52.10;;;;;;5033508;28;20029;-60
2021/07/28 00:44:41;;;;;;;36.42;17.75;;;26.60;52.10;;;;;;5033395;28;20033;-60
2021/07/28 00:47:06;;;;;;;28.02;14.65;;;26.60;52.40;;;;;;5033327;28;20449;-59
2021/07/28 00:49:32;;;;;;;24.13;12.40;;;26.60;52.80;;;;;;5033589;28;20155;-60
2021/07/28 00:52:02;;;;;;;13.07;8.18;;;26.50;53.10;;;;;;5015454;28;20026;-60
2021/07/28 00:54:31;;;;;;;12.52;6.75;;;26.50;52.90;;;;;;5024045;28;20041;-60
2021/07/28 00:56:58;;;;;;;8.32;5.97;;;26.50;52.90;;;;;;5027751;28;20033;-59
2021/07/28 00:59:24;;;;;;;9.68;6.10;;;26.50;53.20;;;;;;5036318;28;20088;-60
2021/07/28 01:01:52;;;;;;;8.60;5.63;;;26.40;53.10;;;;;;5023645;28;20022;-60
2021/07/28 01:04:18;;;;;;;9.32;6.25;;;26.40;53.10;;;;;;5017312;28;20030;-60
2021/07/28 01:06:44;;;;;;;10.35;5.97;;;26.40;53.40;;;;;;5017033;28;20057;-60
2021/07/28 01:09:10;;;;;;;7.72;5.55;;;26.30;53.90;;;;;;5017277;28;20034;-60
2021/07/28 01:11:36;;;;;;;7.57;5.45;;;26.30;54.20;;;;;;5032209;28;20096;-60
2021/07/28 01:14:04;;;;;;;7.30;5.78;;;26.30;54.50;;;;;;5048170;28;20531;-60
2021/07/28 01:16:36;;;;;;;7.75;6.15;;;26.20;54.30;;;;;;5056882;28;20420;-60
2021/07/28 01:19:11;;;;;;;7.93;6.50;;;26.20;54.60;;;;;;5051109;28;20022;-60
2021/07/28 01:21:37;;;;;;;9.70;6.43;;;26.20;55.00;;;;;;5025270;28;20013;-60
2021/07/28 01:24:04;;;;;;;10.10;7.22;;;26.20;54.50;;;;;;5021382;28;20088;-60
2021/07/28 01:26:33;;;;;;;8.45;7.32;;;26.10;54.30;;;;;;5033599;28;20060;-60
2021/07/28 01:28:59;;;;;;;10.25;6.90;;;26.10;54.30;;;;;;5036554;28;20025;-60
2021/07/28 01:31:25;;;;;;;12.13;7.10;;;26.10;54.80;;;;;;5036385;28;20079;-60
2021/07/28 01:33:50;;;;;;;8.38;7.03;;;26.10;54.50;;;;;;5036167;28;20532;-60
2021/07/28 01:36:20;;;;;;;7.95;6.45;;;26.00;54.50;;;;;;5035791;28;20393;-60
2021/07/28 01:38:48;;;;;;;11.52;6.68;;;26.00;54.60;;;;;;5021185;28;20077;-60
2021/07/28 01:41:13;;;;;;;7.25;6.13;;;26.00;54.60;;;;;;5022555;28;20458;-60
2021/07/28 01:43:40;;;;;;;8.73;6.45;;;26.00;54.50;;;;;;5016317;28;20076;-60
2021/07/28 01:46:07;;;;;;;9.70;7.05;;;25.90;55.00;;;;;;5016484;28;20032;-60
2021/07/28 01:48:33;;;;;;;7.85;6.38;;;25.90;54.80;;;;;;5016655;28;20033;-60
2021/07/28 01:50:59;;;;;;;7.88;5.80;;;25.90;54.80;;;;;;5031500;28;20074;-60
2021/07/28 01:53:26;;;;;;;11.93;6.40;;;25.90;55.00;;;;;;5027012;28;20041;-60
2021/07/28 01:55:56;;;;;;;10.73;6.55;;;25.90;54.90;;;;;;5030881;28;20075;-60
2021/07/28 01:58:22;;;;;;;11.02;6.50;;;25.90;55.00;;;;;;5020306;28;20026;-60
2021/07/28 02:00:48;;;;;;;10.00;5.57;;;25.90;55.20;;;;;;5027312;28;20030;-60
2021/07/28 02:03:14;;;;;;;9.27;6.18;;;25.90;55.20;;;;;;5017862;28;20022;-60
2021/07/28 02:05:40;;;;;;;9.45;6.72;;;25.90;55.20;;;;;;5016556;28;20485;-60
2021/07/28 02:08:09;;;;;;;7.90;6.53;;;25.90;55.20;;;;;;5023072;28;20504;-60
2021/07/28 02:10:44;;;;;;;8.10;6.50;;;25.90;55.40;;;;;;5033273;28;20030;-60
2021/07/28 02:13:10;;;;;;;10.43;6.43;;;25.90;55.60;;;;;;5039799;28;20036;-60
2021/07/28 02:15:36;;;;;;;10.90;6.22;;;25.90;55.60;;;;;;5055344;28;20021;-60
2021/07/28 02:18:03;;;;;;;9.07;6.78;;;25.80;55.60;;;;;;5034944;28;20053;-60
2021/07/28 02:20:29;;;;;;;13.10;6.57;;;25.80;55.80;;;;;;5035554;28;20053;-60
2021/07/28 02:22:55;;;;;;;11.55;6.78;;;25.90;55.90;;;;;;5046463;28;20046;-60
2021/07/28 02:25:21;;;;;;;9.18;6.35;;;25.90;56.00;;;;;;5034141;28;20079;-60
2021/07/28 02:27:48;;;;;;;10.55;6.47;;;25.90;55.90;;;;;;5022269;28;20046;-60
2021/07/28 02:30:16;;;;;;;10.57;6.22;;;25.90;55.80;;;;;;5015688;28;20462;-60
2021/07/28 02:32:42;;;;;;;9.48;6.45;;;25.90;55.80;;;;;;5015522;28;20045;-60
2021/07/28 02:35:09;;;;;;;9.45;6.65;;;25.90;55.70;;;;;;5015652;28;20025;-60
2021/07/28 02:37:35;;;;;;;10.23;7.35;;;25.90;55.70;;;;;;5015669;28;20037;-60
2021/07/28 02:40:02;;;;;;;12.50;7.28;;;25.90;55.80;;;;;;5032103;28;20473;-60
2021/07/28 02:42:28;;;;;;;11.10;7.55;;;25.90;55.90;;;;;;5035110;28;20416;-60
2021/07/28 02:44:53;;;;;;;8.32;7.25;;;25.90;55.80;;;;;;5028085;28;20021;-61
2021/07/28 02:47:19;;;;;;;12.20;7.65;;;25.90;56.00;;;;;;5021355;28;20021;-60
2021/07/28 02:49:45;;;;;;;9.27;7.68;;;25.90;56.00;;;;;;5032635;28;20029;-60
2021/07/28 02:52:10;;;;;;;10.05;7.95;;;25.90;56.00;;;;;;5015175;28;20041;-60
2021/07/28 02:54:36;;;;;;;11.85;7.78;;;25.90;56.20;;;;;;5034222;28;20044;-60
2021/07/28 02:57:03;;;;;;;13.95;7.47;;;25.90;56.10;;;;;;5035073;28;20026;-60
2021/07/28 02:59:28;;;;;;;13.05;8.38;;;25.90;56.20;;;;;;5029092;28;20021;-60
2021/07/28 03:01:54;;;;;;;10.43;8.23;;;25.90;56.10;;;;;;5031327;28;20091;-60
2021/07/28 03:04:20;;;;;;;11.90;8.63;;;25.90;56.00;;;;;;5014899;28;20065;-60
2021/07/28 03:06:46;;;;;;;11.23;7.78;;;25.90;56.00;;;;;;5032279;28;20073;-60
2021/07/28 03:09:13;;;;;;;11.38;7.40;;;25.90;56.10;;;;;;5034565;28;20033;-60
2021/07/28 03:11:39;;;;;;;11.10;7.88;;;25.90;56.30;;;;;;5033982;28;20044;-60
2021/07/28 03:14:05;;;;;;;12.00;7.55;;;25.90;56.30;;;;;;5044411;28;20111;-60
2021/07/28 03:16:31;;;;;;;13.32;7.70;;;25.90;56.40;;;;;;5034161;28;20018;-60
2021/07/28 03:18:57;;;;;;;15.55;7.90;;;25.80;56.90;;;;;;5026888;28;20057;-60
2021/07/28 03:21:23;;;;;;;12.35;8.00;;;25.90;56.60;;;;;;5024286;28;20057;-60
2021/07/28 03:23:48;;;;;;;11.77;8.55;;;25.90;56.60;;;;;;5031458;28;20048;-60
2021/07/28 03:26:14;;;;;;;13.88;8.35;;;25.90;56.60;;;;;;5034245;28;20026;-60
2021/07/28 03:28:40;;;;;;;10.48;7.97;;;25.90;56.60;;;;;;5034252;28;20090;-60
2021/07/28 03:31:06;;;;;;;10.80;8.00;;;25.90;56.50;;;;;;5022694;28;20030;-60
2021/07/28 03:33:31;;;;;;;17.23;8.32;;;25.90;56.60;;;;;;5014260;28;20026;-60
2021/07/28 03:35:57;;;;;;;10.90;8.05;;;25.90;56.60;;;;;;5016310;28;20041;-60
2021/07/28 03:38:23;;;;;;;12.30;8.43;;;25.90;56.90;;;;;;5034360;28;20021;-60
2021/07/28 03:40:49;;;;;;;12.77;8.10;;;25.90;56.90;;;;;;5033327;28;20160;-60
2021/07/28 03:43:15;;;;;;;13.35;8.73;;;25.90;56.90;;;;;;5033995;28;20076;-59
2021/07/28 03:45:41;;;;;;;11.32;8.60;;;25.90;57.20;;;;;;5028779;28;20409;-60
2021/07/28 03:48:07;;;;;;;9.50;8.30;;;25.90;57.30;;;;;;5014272;28;20076;-61
2021/07/28 03:50:33;;;;;;;10.15;8.25;;;25.90;57.10;;;;;;5020533;28;20037;-60
2021/07/28 03:53:00;;;;;;;13.63;9.18;;;25.90;57.20;;;;;;5027035;28;20030;-61
2021/07/28 03:55:26;;;;;;;11.70;7.82;;;25.90;57.60;;;;;;5021828;28;20075;-61
2021/07/28 03:57:52;;;;;;;9.27;7.05;;;25.90;57.60;;;;;;5032543;28;20026;-60
2021/07/28 04:00:18;;;;;;;10.85;8.25;;;25.90;57.70;;;;;;5033633;28;20044;-60
2021/07/28 04:02:44;;;;;;;11.80;8.57;;;25.90;57.80;;;;;;5030451;28;20029;-60
2021/07/28 04:05:10;;;;;;;13.88;9.02;;;25.90;58.00;;;;;;5033788;28;20041;-60
2021/07/28 04:07:35;;;;;;;12.05;8.32;;;25.90;58.10;;;;;;5033692;28;20064;-61
2021/07/28 04:10:01;;;;;;;11.95;8.30;;;25.90;58.10;;;;;;5031108;28;20060;-60
2021/07/28 04:12:27;;;;;;;14.07;7.95;;;25.90;58.40;;;;;;5036243;28;20064;-60
2021/07/28 04:14:52;;;;;;;11.23;8.93;;;25.90;58.50;;;;;;5053464;28;20032;-60
2021/07/28 04:17:18;;;;;;;9.70;8.20;;;26.00;58.50;;;;;;5047344;28;20100;-60
2021/07/28 04:19:48;;;;;;;10.68;8.27;;;26.10;58.80;;;;;;5021822;28;20134;-60
2021/07/28 04:22:23;;;;;;;12.85;9.05;;;26.20;58.70;;;;;;5032868;28;20053;-61
2021/07/28 04:24:49;;;;;;;12.48;8.07;;;26.40;58.90;;;;;;5032886;28;20030;-61
2021/07/28 04:27:15;;;;;;;12.90;8.40;;;26.60;59.10;;;;;;5022321;28;20124;-60
2021/07/28 04:29:41;;;;;;;10.73;8.13;;;27.10;58.60;;;;;;5013853;28;20033;-61
2021/07/28 04:32:07;;;;;;;10.73;8.52;;;27.60;57.90;;;;;;5014826;28;20025;-61
2021/07/28 04:34:36;;;;;;;13.40;9.02;;;27.90;56.70;;;;;;5021171;28;20118;-61
2021/07/28 04:37:03;;;;;;;10.50;7.68;;;28.00;56.50;;;;;;5017779;28;20088;-61
2021/07/28 04:39:28;;;;;;;10.27;8.32;;;28.00;56.20;;;;;;5017985;28;20049;-61
2021/07/28 04:41:54;;;;;;;12.35;8.73;;;28.00;56.60;;;;;;5037465;28;20061;-61
2021/07/28 04:44:20;;;;;;;10.98;8.75;;;27.90;56.90;;;;;;5033764;28;20412;-61
2021/07/28 04:46:46;;;;;;;18.58;8.95;;;27.80;57.00;;;;;;5017490;28;20065;-61
2021/07/28 04:49:11;;;;;;;10.93;8.88;;;27.60;57.40;;;;;;5025356;28;20032;-61
2021/07/28 04:51:37;;;;;;;12.13;9.00;;;27.50;58.00;;;;;;5037251;28;20029;-61
2021/07/28 04:54:02;;;;;;;11.95;9.02;;;27.40;58.50;;;;;;5035678;28;20397;-65
2021/07/28 04:56:28;;;;;;;14.57;8.63;;;27.20;58.90;;;;;;5021640;28;20466;-61
2021/07/28 04:58:54;;;;;;;10.68;8.90;;;27.10;59.30;;;;;;5021979;28;20065;-61
2021/07/28 05:01:19;;;;;;;15.57;9.65;;;27.00;59.80;;;;;;5028744;28;20022;-61
2021/07/28 05:03:45;;;;;;;11.57;8.82;;;27.00;60.10;;;;;;5033077;28;20026;-62
2021/07/28 05:06:11;;;;;;;12.25;9.38;;;26.90;60.20;;;;;;5027487;28;20079;-62
2021/07/28 05:08:36;;;;;;;14.75;9.25;;;26.80;59.90;;;;;;5028888;28;20045;-62
2021/07/28 05:11:02;;;;;;;15.05;9.60;;;26.80;59.90;;;;;;5023892;28;20038;-62
2021/07/28 05:13:27;;;;;;;13.00;9.48;;;26.70;59.90;;;;;;5027492;28;20026;-61
2021/07/28 05:15:54;;;;;;;15.70;9.25;;;26.70;60.00;;;;;;5027939;28;20034;-63
2021/07/28 05:18:21;;;;;;;12.25;9.18;;;26.60;60.30;;;;;;5026476;28;20022;-62
2021/07/28 05:20:47;;;;;;;12.57;9.07;;;26.60;60.20;;;;;;5030479;28;20076;-62
2021/07/28 05:23:13;;;;;;;15.60;9.88;;;26.60;60.00;;;;;;5031878;28;20532;-62
2021/07/28 05:25:38;;;;;;;12.80;9.45;;;26.60;60.10;;;;;;5025810;28;20482;-63
2021/07/28 05:28:06;;;;;;;14.90;9.25;;;26.70;60.20;;;;;;5024136;28;20172;-62
2021/07/28 05:30:32;;;;;;;13.88;9.30;;;26.70;60.30;;;;;;5033012;28;20082;-61
2021/07/28 05:32:58;;;;;;;14.10;10.00;;;26.70;60.30;;;;;;5028746;28;20044;-62
2021/07/28 05:35:23;;;;;;;13.45;10.10;;;26.70;60.40;;;;;;5024242;28;20030;-62
2021/07/28 05:37:59;;;;;;;17.27;9.73;;;26.70;60.80;;;;;;5029796;28;20079;-61
2021/07/28 05:40:25;;;;;;;15.88;9.73;;;26.80;60.90;;;;;;5028731;28;20108;-62
2021/07/28 05:42:51;;;;;;;13.27;9.68;;;26.80;60.50;;;;;;5025895;28;20777;-62
2021/07/28 05:45:17;;;;;;;12.23;9.80;;;26.80;60.40;;;;;;5030972;28;20043;-62
2021/07/28 05:47:45;;;;;;;15.48;10.23;;;26.80;60.30;;;;;;5030194;28;20660;-62
2021/07/28 05:50:12;;;;;;;15.70;10.88;;;26.80;60.40;;;;;;5029549;28;20751;-62
2021/07/28 05:52:38;;;;;;;17.88;11.65;;;26.80;60.50;;;;;;5026763;28;20029;-62
2021/07/28 05:55:04;;;;;;;19.80;12.38;;;26.80;60.40;;;;;;5024231;28;20163;-61
2021/07/28 05:57:29;;;;;;;17.55;12.30;;;26.90;60.30;;;;;;5023933;28;20037;-62
2021/07/28 05:59:55;;;;;;;17.70;12.20;;;26.90;60.30;;;;;;5020548;28;20039;-62
2021/07/28 06:02:21;;;;;;;16.35;11.70;;;26.90;61.00;;;;;;5020846;28;20375;-62
2021/07/28 06:04:46;;;;;;;19.30;12.50;;;27.00;60.90;;;;;;5021951;28;20033;-62
2021/07/28 06:07:12;;;;;;;19.80;12.73;;;27.00;60.40;;;;;;5022649;28;20049;-62
2021/07/28 06:09:38;;;;;;;17.77;12.38;;;27.10;60.00;;;;;;5022482;28;20043;-61
2021/07/28 06:12:04;;;;;;;19.13;12.80;;;27.10;59.90;;;;;;5022338;28;20033;-62
2021/07/28 06:14:30;;;;;;;24.52;13.35;;;27.10;59.60;;;;;;5021197;28;20143;-62
2021/07/28 06:16:56;;;;;;;17.55;11.98;;;27.10;59.70;;;;;;5015959;28;20030;-62
2021/07/28 06:19:21;;;;;;;20.63;12.20;;;27.10;59.70;;;;;;5029872;28;21405;-62
2021/07/28 06:21:47;;;;;;;15.43;12.00;;;27.00;59.40;;;;;;5020673;28;20029;-61
2021/07/28 06:24:13;;;;;;;15.63;11.82;;;27.00;59.60;;;;;;5014842;28;21967;-62
2021/07/28 06:26:38;;;;;;;16.35;11.05;;;27.00;60.20;;;;;;5016544;28;20029;-62
2021/07/28 06:29:04;;;;;;;14.57;11.45;;;26.90;60.60;;;;;;5019942;28;20041;-62
2021/07/28 06:31:30;;;;;;;18.17;11.90;;;26.90;60.80;;;;;;5014730;28;20029;-61
2021/07/28 06:33:55;;;;;;;16.30;11.18;;;26.80;60.70;;;;;;5018080;28;20048;-61
2021/07/28 06:36:21;;;;;;;11.38;9.75;;;26.70;61.40;;;;;;5019466;28;20111;-61
2021/07/28 06:38:47;;;;;;;15.80;10.10;;;26.60;61.10;;;;;;5018044;28;20033;-61
2021/07/28 06:41:12;;;;;;;12.23;9.52;;;26.50;61.30;;;;;;5013982;28;20115;-61
2021/07/28 06:43:38;;;;;;;11.82;9.70;;;26.40;61.50;;;;;;5018813;28;20568;-61
2021/07/28 06:46:04;;;;;;;12.90;10.23;;;26.30;62.00;;;;;;5018379;28;20030;-61
2021/07/28 06:48:29;;;;;;;13.10;10.55;;;26.20;62.30;;;;;;5016785;28;20152;-61
2021/07/28 06:50:55;;;;;;;14.57;10.10;;;26.10;62.70;;;;;;5018451;28;20033;-61
2021/07/28 06:53:21;;;;;;;11.60;8.90;;;26.00;63.20;;;;;;5015336;28;20033;-61
2021/07/28 06:55:47;;;;;;;12.88;10.10;;;25.90;63.40;;;;;;5011487;28;20033;-62
2021/07/28 06:58:12;;;;;;;10.55;9.05;;;25.80;64.20;;;;;;5014222;28;20056;-61
2021/07/28 07:00:38;;;;;;;10.90;8.30;;;25.70;64.90;;;;;;5012131;28;20034;-61
2021/07/28 07:03:04;;;;;;;8.23;7.32;;;25.60;65.70;;;;;;5009206;28;20424;-62
2021/07/28 07:05:29;;;;;;;7.80;6.70;;;25.50;66.40;;;;;;5015462;28;20382;-62
2021/07/28 07:07:55;;;;;;;6.97;5.20;;;25.40;66.90;;;;;;5012005;28;20107;-61
2021/07/28 07:10:22;;;;;;;5.10;4.07;;;25.30;67.20;;;;;;5010509;28;20527;-60
2021/07/28 07:12:47;;;;;;;7.63;4.57;;;25.10;67.50;;;;;;5007029;28;20123;-62
2021/07/28 07:15:13;;;;;;;9.10;4.22;;;25.00;68.20;;;;;;5017087;28;20028;-60
2021/07/28 07:17:39;;;;;;;4.20;3.30;;;24.90;68.50;;;;;;5013449;28;21095;-63
2021/07/28 07:20:05;;;;;;;4.53;3.25;;;24.70;68.40;;;;;;5011154;28;20037;-62
2021/07/28 07:22:31;;;;;;;7.20;3.47;;;24.60;68.60;;;;;;5012262;28;20076;-62
2021/07/28 07:24:56;;;;;;;4.70;3.20;;;24.50;69.40;;;;;;5018145;28;20152;-61
2021/07/28 07:27:22;;;;;;;5.72;3.58;;;24.40;70.10;;;;;;5016986;28;20042;-61
2021/07/28 07:29:48;;;;;;;7.55;3.58;;;24.40;71.00;;;;;;5005786;28;20025;-60
2021/07/28 07:32:21;;;;;;;7.72;4.78;;;24.40;71.30;;;;;;5012407;28;20034;-61
2021/07/28 07:34:47;;;;;;;5.75;4.15;;;24.40;70.50;;;;;;5020059;28;20416;-62
2021/07/28 07:37:12;;;;;;;9.43;4.40;;;24.40;70.10;;;;;;5012367;28;20033;-61
2021/07/28 07:39:38;;;;;;;8.98;5.18;;;24.40;70.30;;;;;;5013864;28;20035;-60
2021/07/28 07:42:04;;;;;;;8.40;5.13;;;24.40;70.80;;;;;;5006258;28;20115;-61
2021/07/28 07:44:29;;;;;;;7.88;4.75;;;24.40;70.80;;;;;;5017568;28;20100;-60
2021/07/28 07:46:55;;;;;;;8.27;5.00;;;24.40;70.90;;;;;;5012788;28;20082;-61
2021/07/28 07:49:21;;;;;;;6.07;4.63;;;24.40;71.30;;;;;;5007938;28;20763;-61
2021/07/28 07:51:46;;;;;;;6.22;5.50;;;24.40;71.70;;;;;;5009098;28;20038;-62
2021/07/28 07:54:12;;;;;;;8.57;5.63;;;24.50;72.00;;;;;;5010319;28;20412;-61
2021/07/28 07:56:37;;;;;;;8.85;6.13;;;24.50;72.30;;;;;;5014284;28;20029;-60
2021/07/28 07:59:03;;;;;;;9.25;6.38;;;24.50;72.70;;;;;;5012671;28;20773;-60
2021/07/28 08:01:29;;;;;;;10.05;6.15;;;24.50;73.20;;;;;;5010149;28;20083;-62
2021/07/28 08:03:55;;;;;;;8.57;7.05;;;24.40;73.50;;;;;;5008076;28;20040;-62
2021/07/28 08:06:21;;;;;;;11.88;7.05;;;24.50;73.80;;;;;;5017770;28;20049;-61
2021/07/28 08:08:47;;;;;;;19.58;8.05;;;24.50;74.30;;;;;;5011071;28;20095;-61
2021/07/28 08:11:13;;;;;;;14.35;7.72;;;24.50;74.40;;;;;;5012612;28;20036;-61
2021/07/28 08:13:39;;;;;;;20.17;11.77;;;24.60;74.60;;;;;;5016432;28;20043;-61
2021/07/28 08:16:10;;;;;;;36.53;15.95;;;24.60;74.60;;;;;;5015206;28;20025;-61
2021/07/28 08:18:36;;;;;;;41.42;20.02;;;24.60;74.80;;;;;;5005302;28;20582;-61
2021/07/28 08:21:02;;;;;;;35.42;19.25;;;24.70;75.10;;;;;;5015185;28;20033;-61
2021/07/28 08:23:28;;;;;;;23.15;12.57;;;24.80;75.30;;;;;;5013543;28;20088;-62
2021/07/28 08:25:54;;;;;;;15.43;10.25;;;24.80;75.90;;;;;;5006712;28;20033;-62
2021/07/28 08:28:19;;;;;;;11.93;8.00;;;24.90;75.80;;;;;;5016881;28;20033;-60
2021/07/28 08:30:45;;;;;;;8.43;6.82;;;25.00;75.70;;;;;;5015443;28;20061;-61
2021/07/28 08:33:11;;;;;;;8.95;6.53;;;25.20;75.80;;;;;;5013537;28;20026;-60
2021/07/28 08:35:36;;;;;;;7.57;6.53;;;25.30;75.80;;;;;;5011695;28;20699;-61
2021/07/28 08:38:04;;;;;;;7.35;5.78;;;25.40;76.10;;;;;;5019794;28;20026;-61
2021/07/28 08:40:30;;;;;;;6.80;5.93;;;25.50;76.10;;;;;;5018375;28;20036;-60
2021/07/28 08:42:59;;;;;;;8.38;6.22;;;25.60;75.50;;;;;;5011922;28;20094;-62
2021/07/28 08:45:24;;;;;;;8.15;5.65;;;25.80;75.40;;;;;;5011014;28;20506;-61
2021/07/28 08:47:50;;;;;;;8.52;6.00;;;25.90;75.20;;;;;;5013245;28;20033;-62
2021/07/28 08:50:16;;;;;;;6.68;5.82;;;26.00;74.40;;;;;;5016687;28;20037;-60
2021/07/28 08:52:42;;;;;;;10.35;6.60;;;26.10;74.90;;;;;;5016266;28;20045;-61
2021/07/28 08:55:09;;;;;;;8.40;6.25;;;26.10;74.40;;;;;;5014011;28;20155;-61
2021/07/28 08:57:35;;;;;;;7.63;6.80;;;26.20;74.30;;;;;;5009709;28;20034;-61
2021/07/28 09:00:02;;;;;;;7.63;6.68;;;26.30;74.40;;;;;;5010802;28;20086;-62
2021/07/28 09:02:28;;;;;;;7.22;6.22;;;26.40;74.50;;;;;;5009564;28;20053;-61
2021/07/28 09:04:54;;;;;;;10.35;6.38;;;26.50;74.60;;;;;;5014595;28;20037;-61
2021/07/28 09:07:20;;;;;;;11.10;6.75;;;26.50;74.40;;;;;;5020984;28;20472;-62
2021/07/28 09:09:54;;;;;;;8.15;6.63;;;26.60;74.70;;;;;;5015448;28;20068;-63
2021/07/28 09:12:20;;;;;;;7.22;6.32;;;26.80;74.70;;;;;;5016491;28;20116;-62
2021/07/28 09:14:55;;;;;;;10.55;7.28;;;26.80;73.90;;;;;;5019123;28;20049;-61
2021/07/28 09:17:26;;;;;;;9.80;7.80;;;26.90;74.00;;;;;;5014218;28;20030;-62
2021/07/28 09:19:52;;;;;;;8.77;6.75;;;27.00;74.10;;;;;;5009591;28;20041;-60
2021/07/28 09:22:19;;;;;;;10.65;7.18;;;27.10;73.50;;;;;;5009090;28;21638;-61
2021/07/28 09:25:04;;;;;;;10.43;7.65;;;27.10;73.20;;;;;;5010293;28;20561;-62
2021/07/28 09:27:40;;;;;;;8.75;7.50;;;27.20;73.10;;;;;;5012455;28;20036;-60
2021/07/28 09:30:07;;;;;;;11.27;8.63;;;27.20;72.90;;;;;;5017749;28;20033;-62
2021/07/28 09:32:35;;;;;;;20.45;9.70;;;27.30;73.10;;;;;;5017459;28;20436;-60
2021/07/28 09:35:01;;;;;;;17.75;9.65;;;27.30;72.90;;;;;;5012253;28;20029;-61
2021/07/28 09:37:27;;;;;;;19.27;9.07;;;27.40;72.30;;;;;;5018845;28;20025;-62
2021/07/28 09:39:54;;;;;;;18.13;10.57;;;27.50;71.90;;;;;;5020499;28;20060;-62
2021/07/28 09:42:27;;;;;;;14.55;9.25;;;27.50;71.60;;;;;;5018152;28;20358;-62
2021/07/28 09:44:55;;;;;;;12.82;9.25;;;27.60;71.40;;;;;;5022467;28;20032;-61
2021/07/28 09:47:23;;;;;;;17.52;10.07;;;27.60;71.20;;;;;;5019011;28;20044;-62
2021/07/28 09:49:50;;;;;;;14.30;10.05;;;27.70;71.10;;;;;;5013250;28;20053;-62
2021/07/28 09:52:34;;;;;;;21.33;11.35;;;27.70;71.10;;;;;;5018307;28;20167;-62
2021/07/28 09:55:21;;;;;;;19.88;12.55;;;27.80;71.50;;;;;;5016309;28;20025;-62
2021/07/28 09:57:58;;;;;;;13.40;10.55;;;27.80;71.50;;;;;;5018345;28;20095;-62
2021/07/28 10:00:28;;;;;;;11.10;8.65;;;27.90;71.40;;;;;;5022009;28;20026;-62
2021/07/28 10:03:00;;;;;;;9.98;8.93;;;27.90;70.90;;;;;;5016137;28;20517;-62
2021/07/28 10:05:27;;;;;;;12.00;9.95;;;27.90;70.70;;;;;;5016652;28;20095;-62
2021/07/28 10:07:59;;;;;;;9.65;7.80;;;27.90;70.90;;;;;;5015978;28;20052;-64
2021/07/28 10:10:27;;;;;;;11.25;8.02;;;28.00;71.30;;;;;;5019989;28;20090;-62
2021/07/28 10:12:53;;;;;;;11.32;8.20;;;28.00;71.30;;;;;;5009998;28;20030;-63
2021/07/28 10:15:20;;;;;;;13.00;8.10;;;28.00;71.40;;;;;;5010683;28;20621;-62
2021/07/28 10:17:46;;;;;;;11.00;7.75;;;28.00;71.50;;;;;;5013481;28;20120;-62
2021/07/28 10:20:15;;;;;;;11.05;8.38;;;28.10;71.10;;;;;;5020373;28;20060;-62
2021/07/28 10:22:42;;;;;;;9.48;8.00;;;28.10;70.50;;;;;;5016381;28;20049;-62
2021/07/28 10:25:13;;;;;;;10.07;8.20;;;28.10;70.30;;;;;;5015944;28;20033;-61
2021/07/28 10:27:40;;;;;;;;;;;28.10;70.20;;;;;;5022231;28;20129;-62
2021/07/28 10:30:07;;;;;;;9.23;7.30;;;28.10;70.00;;;;;;5010917;28;19909;-63
2021/07/28 10:32:34;;;;;;;10.23;7.80;;;28.10;69.70;;;;;;5008437;28;20121;-62
2021/07/28 10:35:29;;;;;;;9.82;8.20;;;28.20;69.70;;;;;;4997584;28;20037;-61
2021/07/28 10:37:57;;;;;;;11.35;8.43;;;28.20;69.20;;;;;;5012836;28;20033;-61
2021/07/28 10:40:23;;;;;;;10.40;8.68;;;28.20;69.00;;;;;;5009521;28;20116;-62
2021/07/28 10:42:48;;;;;;;11.35;8.25;;;28.20;69.30;;;;;;5014328;28;20331;-62
2021/07/28 10:45:14;;;;;;;8.93;8.02;;;28.30;69.20;;;;;;5014678;28;20033;-62
2021/07/28 10:47:47;;;;;;;11.68;8.88;;;28.30;69.00;;;;;;5013556;28;20654;-62
2021/07/28 10:50:31;;;;;;;10.45;8.65;;;28.30;68.90;;;;;;5020247;28;20040;-63
2021/07/28 10:53:04;;;;;;;10.23;7.90;;;28.30;68.40;;;;;;5013926;28;20033;-62
2021/07/28 10:55:30;;;;;;;11.20;8.40;;;28.30;68.90;;;;;;5010531;28;20044;-62
2021/07/28 10:58:11;;;;;;;12.05;9.18;;;28.40;69.30;;;;;;5008071;28;20369;-62
2021/07/28 11:00:39;;;;;;;13.85;8.60;;;28.40;69.20;;;;;;5013588;28;20048;-62
2021/07/28 11:03:08;;;;;;;9.80;8.02;;;28.40;69.20;;;;;;5010862;28;20025;-62
2021/07/28 11:05:42;;;;;;;10.18;9.15;;;28.40;69.20;;;;;;5016603;28;20033;-62
2021/07/28 11:08:08;;;;;;;9.10;7.88;;;28.40;68.90;;;;;;5009589;28;20116;-62
2021/07/28 11:10:40;;;;;;;9.82;8.60;;;28.50;69.20;;;;;;5011134;28;20055;-62
2021/07/28 11:13:11;;;;;;;9.68;8.77;;;28.50;68.80;;;;;;5016345;28;20021;-62
2021/07/28 11:15:37;;;;;;;12.93;8.60;;;28.50;68.40;;;;;;5016276;28;20637;-61
2021/07/28 11:18:04;;;;;;;9.10;8.18;;;28.50;68.50;;;;;;5015048;28;20503;-63
2021/07/28 11:20:37;;;;;;;10.05;8.88;;;28.50;68.30;;;;;;5013094;28;20398;-62
2021/07/28 11:23:37;;;;;;;11.20;8.93;;;28.50;68.30;;;;;;5015856;28;20045;-62
2021/07/28 11:26:22;;;;;;;9.15;8.18;;;28.60;68.20;;;;;;5015011;28;20030;-63
2021/07/28 11:28:50;;;;;;;11.52;8.38;;;28.60;68.30;;;;;;5014810;28;20108;-62
2021/07/28 11:31:23;;;;;;;11.40;8.90;;;28.60;68.30;;;;;;5011202;28;20029;-61
2021/07/28 11:33:48;;;;;;;9.93;8.48;;;28.60;68.30;;;;;;5016349;28;20041;-63
2021/07/28 11:36:18;;;;;;;10.98;8.35;;;28.60;68.20;;;;;;5018109;28;20422;-61
2021/07/28 11:38:44;;;;;;;11.57;8.73;;;28.60;67.90;;;;;;5019688;28;20040;-63
2021/07/28 11:41:10;;;;;;;10.05;8.20;;;28.60;67.80;;;;;;5016454;28;20037;-63
2021/07/28 11:43:42;;;;;;;11.63;8.57;;;28.70;67.90;;;;;;5014200;28;20026;-63
2021/07/28 11:46:12;;;;;;;13.40;9.27;;;28.70;67.80;;;;;;5014388;28;20587;-63
2021/07/28 11:48:46;;;;;;;10.05;8.60;;;28.70;67.70;;;;;;5011161;28;20034;-62
2021/07/28 11:51:25;;;;;;;11.05;8.55;;;28.60;67.80;;;;;;5011429;28;20112;-62
2021/07/28 11:53:52;;;;;;;14.02;9.35;;;28.70;68.10;;;;;;5016189;28;20084;-62
2021/07/28 11:56:18;;;;;;;12.20;9.40;;;28.70;68.30;;;;;;5013779;28;20032;-63
2021/07/28 11:58:48;;;;;;;10.52;8.82;;;28.70;68.40;;;;;;5012574;28;20114;-62
2021/07/28 12:01:20;;;;;;;11.97;9.30;;;28.70;68.30;;;;;;5018521;28;20064;-62
2021/07/28 12:03:50;;;;;;;12.60;8.90;;;28.70;68.50;;;;;;5011660;28;20057;-62
2021/07/28 12:06:27;;;;;;;;;;;28.70;68.60;;;;;;5011493;28;20053;-63
2021/07/28 12:09:08;;;;;;;9.75;8.60;;;28.60;68.40;;;;;;5013723;28;19970;-62
2021/07/28 12:12:15;;;;;;;9.80;8.80;;;28.70;68.70;;;;;;5006084;28;20970;-62
2021/07/28 12:14:43;;;;;;;10.07;9.00;;;28.70;68.60;;;;;;5012511;28;20048;-63
2021/07/28 12:17:18;;;;;;;12.88;9.20;;;28.70;68.80;;;;;;5013726;28;20544;-62
2021/07/28 12:20:10;;;;;;;10.80;9.40;;;28.70;69.10;;;;;;5008883;28;20036;-63
2021/07/28 12:22:41;;;;;;;11.93;9.80;;;28.70;69.00;;;;;;5011643;28;20103;-62
2021/07/28 12:25:24;;;;;;;12.05;9.50;;;28.70;69.00;;;;;;5011816;28;20029;-62
2021/07/28 12:27:56;;;;;;;11.05;8.65;;;28.80;69.10;;;;;;5010374;28;20576;-62
2021/07/28 12:30:36;;;;;;;13.40;9.40;;;28.80;69.10;;;;;;5005061;28;20026;-62
2021/07/28 12:33:03;;;;;;;10.48;9.18;;;28.70;68.10;;;;;;5012777;28;20071;-62
2021/07/28 12:35:32;;;;;;;9.68;8.15;;;28.80;68.00;;;;;;5011824;28;20117;-62
2021/07/28 12:38:19;;;;;;;10.98;8.80;;;28.80;67.90;;;;;;5010921;28;20032;-62
2021/07/28 12:40:52;;;;;;;8.75;7.95;;;28.80;67.80;;;;;;5012025;28;20033;-62
2021/07/28 12:43:19;;;;;;;9.75;8.40;;;28.80;67.80;;;;;;5009190;28;20025;-64
2021/07/28 12:45:50;;;;;;;11.20;8.43;;;28.80;67.50;;;;;;5014129;28;20029;-63